Time;durP1;ratioP1;P1;durP2;ratioP2;P2;SDS_P1;SDS_P2;PMS_P1;PMS_P2;Temp;Humidity;BMP_temperature;BMP_pressure;BME280_temperature;BME280_humidity;BME280_pressure;Samples;Min_cycle;Max_cycle;Signal;HPM_P1;HPM_P2
2024/02/28 00:00:29;;;;;;;20.40;12.90;;;;;;;;;;5036012;28;20038;-81
2024/02/28 00:02:55;;;;;;;20.13;12.70;;;;;;;;;;5027521;28;20030;-81
2024/02/28 00:05:21;;;;;;;21.52;13.43;;;;;;;;;;5027076;28;20032;-81
2024/02/28 00:07:48;;;;;;;23.27;13.15;;;;;;;;;;5026856;28;20025;-81
2024/02/28 00:10:14;;;;;;;21.60;14.05;;;;;;;;;;5026819;28;20078;-82
2024/02/28 00:12:40;;;;;;;22.95;14.55;;;;;;;;;;5027594;28;20026;-81
2024/02/28 00:15:10;;;;;;;23.10;14.75;;;;;;;;;;5027089;28;20041;-81
2024/02/28 00:17:42;;;;;;;18.90;12.40;;;;;;;;;;5026807;28;20033;-81
2024/02/28 00:20:09;;;;;;;19.88;12.80;;;;;;;;;;5027254;28;20045;-80
2024/02/28 00:22:39;;;;;;;17.30;11.55;;;;;;;;;;5030113;28;20032;-79
2024/02/28 00:25:06;;;;;;;24.95;15.63;;;;;;;;;;5030858;28;20468;-80
2024/02/28 00:27:33;;;;;;;20.58;13.63;;;;;;;;;;5019883;28;20026;-81
2024/02/28 00:29:59;;;;;;;22.33;14.18;;;;;;;;;;5027695;28;20030;-82
2024/02/28 00:32:25;;;;;;;23.08;14.35;;;;;;;;;;5026001;28;20006;-81
2024/02/28 00:34:51;;;;;;;25.25;14.80;;;;;;;;;;5027602;28;20030;-82
2024/02/28 00:37:17;;;;;;;21.67;14.50;;;;;;;;;;5027056;28;20033;-79
2024/02/28 00:39:44;;;;;;;21.85;13.48;;;;;;;;;;5026956;28;20025;-80
2024/02/28 00:42:10;;;;;;;20.75;13.00;;;;;;;;;;5033169;28;20018;-81
2024/02/28 00:44:36;;;;;;;19.45;12.63;;;;;;;;;;5031809;28;20048;-79
2024/02/28 00:47:02;;;;;;;16.90;10.95;;;;;;;;;;5031147;28;20026;-80
2024/02/28 00:49:28;;;;;;;13.57;9.43;;;;;;;;;;5032461;28;20178;-80
2024/02/28 00:51:55;;;;;;;13.32;8.73;;;;;;;;;;5033433;28;20030;-81
2024/02/28 00:54:23;;;;;;;11.45;7.43;;;;;;;;;;5028554;28;20048;-80
2024/02/28 00:56:49;;;;;;;8.88;7.15;;;;;;;;;;5028623;28;20018;-81
2024/02/28 00:59:16;;;;;;;11.43;7.72;;;;;;;;;;5028093;28;20018;-81
2024/02/28 01:01:42;;;;;;;10.23;7.18;;;;;;;;;;5036560;28;20076;-82
2024/02/28 01:04:08;;;;;;;9.52;6.32;;;;;;;;;;5028923;28;20037;-81
2024/02/28 01:06:34;;;;;;;8.35;5.97;;;;;;;;;;5031486;28;20018;-81
2024/02/28 01:09:00;;;;;;;8.02;5.93;;;;;;;;;;5027810;28;20037;-80
2024/02/28 01:11:26;;;;;;;7.63;5.63;;;;;;;;;;5030547;28;20041;-81
2024/02/28 01:13:52;;;;;;;7.72;4.93;;;;;;;;;;5024273;28;20030;-80
2024/02/28 01:16:18;;;;;;;6.28;4.95;;;;;;;;;;5029310;28;20034;-81
2024/02/28 01:18:44;;;;;;;7.35;4.65;;;;;;;;;;5030109;28;20025;-81
2024/02/28 01:21:10;;;;;;;6.30;4.53;;;;;;;;;;5033517;28;20018;-81
2024/02/28 01:23:36;;;;;;;4.85;3.72;;;;;;;;;;5056778;28;20056;-79
2024/02/28 01:26:05;;;;;;;8.90;5.57;;;;;;;;;;5050015;28;20056;-81
2024/02/28 01:28:32;;;;;;;8.48;6.00;;;;;;;;;;5065246;28;20013;-81
2024/02/28 01:30:58;;;;;;;9.75;6.35;;;;;;;;;;5046769;28;20060;-80
2024/02/28 01:33:24;;;;;;;8.52;5.78;;;;;;;;;;5036767;28;20014;-80
2024/02/28 01:35:50;;;;;;;11.75;7.25;;;;;;;;;;5037412;28;20064;-81
2024/02/28 01:38:16;;;;;;;11.20;7.50;;;;;;;;;;5030357;28;20029;-79
2024/02/28 01:40:46;;;;;;;12.50;8.38;;;;;;;;;;5032671;28;20030;-79
2024/02/28 01:43:12;;;;;;;20.73;13.25;;;;;;;;;;5035864;28;20017;-80
2024/02/28 01:45:39;;;;;;;25.10;14.95;;;;;;;;;;5032212;28;20116;-80
2024/02/28 01:48:07;;;;;;;24.30;14.13;;;;;;;;;;5034420;28;20049;-81
2024/02/28 01:50:33;;;;;;;22.20;14.68;;;;;;;;;;5037605;28;20317;-81
2024/02/28 01:53:00;;;;;;;26.50;17.50;;;;;;;;;;5054557;28;20055;-81
2024/02/28 01:55:26;;;;;;;23.73;16.00;;;;;;;;;;5033398;28;20040;-81
2024/02/28 01:57:53;;;;;;;21.73;14.25;;;;;;;;;;5029895;28;20393;-81
2024/02/28 02:00:22;;;;;;;21.48;13.00;;;;;;;;;;5029861;28;20040;-80
2024/02/28 02:02:49;;;;;;;24.52;16.00;;;;;;;;;;5034302;28;20022;-81
2024/02/28 02:05:16;;;;;;;22.95;14.73;;;;;;;;;;5036119;28;20029;-81
2024/02/28 02:07:42;;;;;;;24.85;16.38;;;;;;;;;;5034927;28;20021;-80
2024/02/28 02:10:12;;;;;;;25.85;15.77;;;;;;;;;;5039549;28;20068;-82
2024/02/28 02:12:38;;;;;;;25.13;16.52;;;;;;;;;;5032833;28;20582;-79
2024/02/28 02:15:04;;;;;;;27.15;17.52;;;;;;;;;;5037234;28;20033;-81
2024/02/28 02:17:31;;;;;;;29.65;18.50;;;;;;;;;;5040483;28;20033;-81
2024/02/28 02:19:57;;;;;;;27.77;17.45;;;;;;;;;;5038119;28;20026;-81
2024/02/28 02:22:27;;;;;;;27.05;16.88;;;;;;;;;;5034383;28;20109;-80
2024/02/28 02:24:53;;;;;;;27.02;16.92;;;;;;;;;;5026232;28;20029;-80
2024/02/28 02:27:20;;;;;;;26.83;17.33;;;;;;;;;;5019870;28;20038;-81
2024/02/28 02:29:46;;;;;;;25.35;15.50;;;;;;;;;;5025682;28;20030;-81
2024/02/28 02:32:12;;;;;;;24.92;15.02;;;;;;;;;;5027635;28;20088;-80
2024/02/28 02:34:38;;;;;;;25.30;16.05;;;;;;;;;;5033091;28;20037;-80
2024/02/28 02:37:04;;;;;;;23.85;15.13;;;;;;;;;;5026544;28;20026;-81
2024/02/28 02:39:32;;;;;;;31.58;19.20;;;;;;;;;;5025983;28;20105;-81
2024/02/28 02:41:58;;;;;;;26.67;17.45;;;;;;;;;;5026049;28;20057;-81
2024/02/28 02:44:24;;;;;;;31.55;17.30;;;;;;;;;;5026467;28;20033;-81
2024/02/28 02:46:51;;;;;;;31.63;20.35;;;;;;;;;;5026838;28;20049;-81
2024/02/28 02:49:18;;;;;;;28.85;17.52;;;;;;;;;;5025769;28;20045;-80
2024/02/28 02:51:44;;;;;;;29.10;18.98;;;;;;;;;;5029039;28;20071;-80
2024/02/28 02:54:11;;;;;;;30.65;18.98;;;;;;;;;;5024430;28;20094;-80
2024/02/28 02:56:37;;;;;;;34.13;19.30;;;;;;;;;;5042477;28;20038;-80
2024/02/28 02:59:03;;;;;;;33.90;19.25;;;;;;;;;;5022048;28;20026;-81
2024/02/28 03:01:29;;;;;;;33.92;19.98;;;;;;;;;;5032647;28;20022;-81
2024/02/28 03:03:56;;;;;;;30.38;17.67;;;;;;;;;;5044616;28;20076;-81
2024/02/28 03:06:23;;;;;;;33.45;20.67;;;;;;;;;;5027548;28;20073;-81
2024/02/28 03:08:50;;;;;;;33.00;20.60;;;;;;;;;;5029084;28;20425;-82
2024/02/28 03:11:16;;;;;;;28.90;18.08;;;;;;;;;;5029946;28;20536;-80
2024/02/28 03:13:42;;;;;;;30.15;19.40;;;;;;;;;;5037705;28;20032;-82
2024/02/28 03:16:08;;;;;;;31.38;18.10;;;;;;;;;;5028813;28;20033;-80
2024/02/28 03:18:34;;;;;;;30.02;18.83;;;;;;;;;;5019578;28;20018;-82
2024/02/28 03:21:00;;;;;;;30.55;19.40;;;;;;;;;;5039852;28;20096;-80
2024/02/28 03:23:26;;;;;;;31.63;18.75;;;;;;;;;;5027209;28;20026;-81
2024/02/28 03:25:52;;;;;;;35.67;21.52;;;;;;;;;;5025840;28;20064;-81
2024/02/28 03:28:18;;;;;;;36.35;22.33;;;;;;;;;;5023957;28;20026;-81
2024/02/28 03:30:44;;;;;;;39.72;21.23;;;;;;;;;;5040971;28;20052;-81
2024/02/28 03:33:10;;;;;;;37.10;21.27;;;;;;;;;;5031731;28;20029;-81
2024/02/28 03:35:37;;;;;;;34.00;21.73;;;;;;;;;;5028967;28;20018;-80
2024/02/28 03:38:03;;;;;;;34.50;21.15;;;;;;;;;;5032444;28;20029;-80
2024/02/28 03:40:29;;;;;;;39.65;21.52;;;;;;;;;;5039225;28;20036;-81
2024/02/28 03:42:55;;;;;;;37.17;22.65;;;;;;;;;;5030372;28;20033;-80
2024/02/28 03:45:21;;;;;;;30.92;20.10;;;;;;;;;;5020862;28;20392;-80
2024/02/28 03:47:47;;;;;;;32.22;20.88;;;;;;;;;;5021270;28;20115;-80
2024/02/28 03:50:13;;;;;;;30.63;19.45;;;;;;;;;;5022556;28;20109;-80
2024/02/28 03:52:39;;;;;;;31.92;18.60;;;;;;;;;;5023810;28;20033;-79
2024/02/28 03:55:05;;;;;;;27.73;17.13;;;;;;;;;;5023363;28;20045;-80
2024/02/28 03:57:31;;;;;;;34.10;20.75;;;;;;;;;;5029306;28;20014;-81
2024/02/28 03:59:58;;;;;;;30.20;18.20;;;;;;;;;;5055897;28;20029;-80
2024/02/28 04:02:24;;;;;;;33.78;21.05;;;;;;;;;;5027195;28;20025;-79
2024/02/28 04:04:50;;;;;;;32.70;20.08;;;;;;;;;;5028077;28;20113;-81
2024/02/28 04:07:16;;;;;;;30.55;17.90;;;;;;;;;;5029107;28;20022;-82
2024/02/28 04:09:42;;;;;;;35.05;19.98;;;;;;;;;;5026923;28;20100;-80
2024/02/28 04:12:08;;;;;;;30.60;19.15;;;;;;;;;;5025685;28;20026;-80
2024/02/28 04:14:34;;;;;;;33.13;18.80;;;;;;;;;;5026827;28;20026;-80
2024/02/28 04:17:00;;;;;;;30.45;18.70;;;;;;;;;;5025980;28;20083;-79
2024/02/28 04:19:26;;;;;;;37.28;21.40;;;;;;;;;;5022966;28;20034;-79
2024/02/28 04:21:53;;;;;;;32.80;19.70;;;;;;;;;;5020173;28;20029;-81
2024/02/28 04:24:19;;;;;;;30.88;18.45;;;;;;;;;;5026229;28;20030;-80
2024/02/28 04:26:45;;;;;;;31.95;19.20;;;;;;;;;;5025150;28;20053;-81
2024/02/28 04:29:13;;;;;;;30.58;18.90;;;;;;;;;;5025997;28;20030;-81
2024/02/28 04:31:40;;;;;;;29.58;18.20;;;;;;;;;;5026716;28;20056;-81
2024/02/28 04:34:06;;;;;;;26.42;17.67;;;;;;;;;;5025860;28;20072;-81
2024/02/28 04:36:33;;;;;;;29.65;19.25;;;;;;;;;;5017954;28;20026;-79
2024/02/28 04:39:00;;;;;;;30.15;18.40;;;;;;;;;;5018230;28;20080;-79
2024/02/28 04:41:26;;;;;;;30.75;19.60;;;;;;;;;;5022057;28;20421;-82
2024/02/28 04:43:52;;;;;;;27.33;17.73;;;;;;;;;;5022924;28;20064;-82
2024/02/28 04:46:19;;;;;;;26.63;16.00;;;;;;;;;;5022078;28;20030;-80
2024/02/28 04:48:45;;;;;;;23.80;15.70;;;;;;;;;;5022303;28;20090;-80
2024/02/28 04:51:11;;;;;;;24.88;16.13;;;;;;;;;;5029775;28;20029;-82
2024/02/28 04:53:37;;;;;;;25.73;15.48;;;;;;;;;;5015342;28;20029;-81
2024/02/28 04:56:03;;;;;;;20.42;13.68;;;;;;;;;;5022594;28;20100;-81
2024/02/28 04:58:29;;;;;;;17.92;12.57;;;;;;;;;;5027492;28;20448;-82
2024/02/28 05:00:55;;;;;;;17.02;11.18;;;;;;;;;;5022970;28;20025;-82
2024/02/28 05:03:22;;;;;;;15.57;10.93;;;;;;;;;;5022423;28;20033;-82
2024/02/28 05:05:48;;;;;;;20.30;12.05;;;;;;;;;;5023719;28;20026;-81
2024/02/28 05:08:14;;;;;;;15.57;10.73;;;;;;;;;;5040034;28;20026;-82
2024/02/28 05:10:40;;;;;;;16.73;11.00;;;;;;;;;;5041401;28;20025;-79
2024/02/28 05:13:06;;;;;;;16.27;10.77;;;;;;;;;;5024524;28;20030;-79
2024/02/28 05:15:32;;;;;;;14.93;10.25;;;;;;;;;;5026234;28;20022;-79
2024/02/28 05:17:58;;;;;;;17.27;10.52;;;;;;;;;;5026735;28;20041;-79
2024/02/28 05:20:25;;;;;;;16.48;10.65;;;;;;;;;;5028233;28;20026;-80
2024/02/28 05:22:51;;;;;;;17.88;11.32;;;;;;;;;;5027386;28;20022;-80
2024/02/28 05:25:17;;;;;;;14.82;10.35;;;;;;;;;;5026062;28;20436;-79
2024/02/28 05:27:43;;;;;;;16.67;10.95;;;;;;;;;;5028022;28;20030;-79
2024/02/28 05:30:09;;;;;;;14.27;9.45;;;;;;;;;;5035111;28;20029;-80
2024/02/28 05:32:36;;;;;;;12.63;8.30;;;;;;;;;;5030319;28;20041;-80
2024/02/28 05:35:02;;;;;;;13.70;9.02;;;;;;;;;;5044933;28;20030;-80
2024/02/28 05:37:28;;;;;;;15.07;9.77;;;;;;;;;;5031258;28;20029;-80
2024/02/28 05:39:54;;;;;;;15.65;10.77;;;;;;;;;;5036653;28;20036;-78
2024/02/28 05:42:23;;;;;;;16.30;11.35;;;;;;;;;;5031795;28;20051;-79
2024/02/28 05:44:50;;;;;;;19.63;12.55;;;;;;;;;;5032277;28;20085;-79
2024/02/28 05:47:16;;;;;;;19.40;12.32;;;;;;;;;;5031278;28;20041;-78
2024/02/28 05:49:43;;;;;;;16.42;11.40;;;;;;;;;;5026480;28;20141;-79
2024/02/28 05:52:10;;;;;;;22.05;13.40;;;;;;;;;;5039650;28;20033;-79
2024/02/28 05:54:37;;;;;;;20.35;13.35;;;;;;;;;;5039664;28;20030;-81
2024/02/28 05:57:03;;;;;;;22.27;13.77;;;;;;;;;;5024024;28;20029;-80
2024/02/28 05:59:29;;;;;;;23.58;14.55;;;;;;;;;;5030937;28;20119;-80
2024/02/28 06:01:55;;;;;;;21.85;13.32;;;;;;;;;;5033093;28;20037;-79
2024/02/28 06:04:21;;;;;;;23.88;14.25;;;;;;;;;;5026837;28;20030;-79
2024/02/28 06:06:49;;;;;;;20.30;13.57;;;;;;;;;;5026945;28;20481;-79
2024/02/28 06:09:15;;;;;;;17.25;11.32;;;;;;;;;;5026502;28;20033;-79
2024/02/28 06:11:42;;;;;;;18.40;12.50;;;;;;;;;;5023359;28;20043;-80
2024/02/28 06:14:09;;;;;;;18.42;12.07;;;;;;;;;;5023642;28;20041;-80
2024/02/28 06:16:35;;;;;;;19.20;12.05;;;;;;;;;;5032624;28;20029;-78
2024/02/28 06:19:01;;;;;;;21.58;12.98;;;;;;;;;;5034804;28;20033;-79
2024/02/28 06:21:27;;;;;;;27.60;15.98;;;;;;;;;;5030439;28;20109;-83
2024/02/28 06:23:53;;;;;;;24.50;15.82;;;;;;;;;;5020696;28;20113;-78
2024/02/28 06:26:19;;;;;;;22.27;13.18;;;;;;;;;;5012008;28;20081;-79
2024/02/28 06:28:45;;;;;;;21.38;12.57;;;;;;;;;;5021413;28;20052;-78
2024/02/28 06:31:19;;;;;;;17.92;11.55;;;;;;;;;;5037818;28;20034;-78
2024/02/28 06:33:45;;;;;;;23.45;12.88;;;;;;;;;;5017200;28;20026;-78
2024/02/28 06:36:12;;;;;;;23.00;13.20;;;;;;;;;;5013275;28;20053;-78
2024/02/28 06:38:38;;;;;;;24.58;15.55;;;;;;;;;;5014388;28;20073;-79
2024/02/28 06:41:08;;;;;;;27.98;16.40;;;;;;;;;;5012816;28;20022;-78
2024/02/28 06:43:35;;;;;;;25.50;14.82;;;;;;;;;;5021402;28;20505;-78
2024/02/28 06:46:01;;;;;;;40.17;20.50;;;;;;;;;;5027346;28;20026;-79
2024/02/28 06:48:28;;;;;;;32.95;18.77;;;;;;;;;;5020724;28;20030;-78
2024/02/28 06:50:54;;;;;;;32.40;20.55;;;;;;;;;;5021210;28;20049;-79
2024/02/28 06:53:20;;;;;;;36.28;21.85;;;;;;;;;;5024722;28;20109;-78
2024/02/28 06:55:50;;;;;;;30.25;18.80;;;;;;;;;;5022559;28;20022;-79
2024/02/28 06:58:16;;;;;;;32.78;19.50;;;;;;;;;;5021103;28;20030;-78
2024/02/28 07:00:43;;;;;;;33.28;19.27;;;;;;;;;;5023504;28;20026;-78
2024/02/28 07:03:09;;;;;;;27.45;16.63;;;;;;;;;;5040621;28;20026;-78
2024/02/28 07:05:35;;;;;;;36.50;21.13;;;;;;;;;;5020404;28;20026;-78
2024/02/28 07:08:01;;;;;;;36.72;21.80;;;;;;;;;;5037705;28;20030;-79
2024/02/28 07:10:28;;;;;;;47.60;25.27;;;;;;;;;;5029652;28;20100;-78
2024/02/28 07:12:54;;;;;;;45.15;24.10;;;;;;;;;;5030079;28;20030;-79
2024/02/28 07:15:21;;;;;;;56.25;28.30;;;;;;;;;;5015122;28;20034;-78
2024/02/28 07:17:47;;;;;;;56.25;29.15;;;;;;;;;;5021546;28;20029;-77
2024/02/28 07:20:13;;;;;;;49.28;26.98;;;;;;;;;;5018180;28;20041;-77
2024/02/28 07:22:42;;;;;;;61.90;34.78;;;;;;;;;;5020703;28;20021;-78
2024/02/28 07:25:08;;;;;;;51.45;28.65;;;;;;;;;;5017347;28;20030;-78
2024/02/28 07:27:34;;;;;;;46.92;25.65;;;;;;;;;;5017783;28;20057;-79
2024/02/28 07:30:03;;;;;;;47.42;24.92;;;;;;;;;;5033998;28;20028;-78
2024/02/28 07:32:34;;;;;;;41.92;23.92;;;;;;;;;;5020383;28;20054;-78
2024/02/28 07:35:00;;;;;;;35.53;21.20;;;;;;;;;;5020812;28;20039;-79
2024/02/28 07:37:26;;;;;;;47.63;23.00;;;;;;;;;;5019857;28;20013;-78
2024/02/28 07:39:52;;;;;;;38.53;22.20;;;;;;;;;;5027559;28;20026;-80
2024/02/28 07:42:18;;;;;;;38.25;19.95;;;;;;;;;;5033306;28;20037;-77
2024/02/28 07:44:44;;;;;;;38.25;21.63;;;;;;;;;;5028962;28;20029;-80
2024/02/28 07:47:11;;;;;;;51.20;26.40;;;;;;;;;;5022089;28;20033;-79
2024/02/28 07:49:37;;;;;;;44.83;24.35;;;;;;;;;;5022539;28;20047;-79
2024/02/28 07:52:03;;;;;;;45.13;23.73;;;;;;;;;;5031032;28;20034;-79
2024/02/28 07:54:29;;;;;;;53.05;28.20;;;;;;;;;;5031132;28;20022;-78
2024/02/28 07:56:55;;;;;;;46.03;25.42;;;;;;;;;;5030799;28;20473;-79
2024/02/28 07:59:21;;;;;;;54.95;27.95;;;;;;;;;;5035153;28;20029;-79
2024/02/28 08:01:47;;;;;;;51.67;27.33;;;;;;;;;;5020786;28;20029;-79
2024/02/28 08:04:13;;;;;;;46.92;26.27;;;;;;;;;;5036258;28;20037;-79
2024/02/28 08:06:40;;;;;;;49.75;25.73;;;;;;;;;;5018567;28;20048;-79
2024/02/28 08:09:07;;;;;;;44.03;24.92;;;;;;;;;;5023234;28;20067;-78
2024/02/28 08:11:33;;;;;;;44.30;23.55;;;;;;;;;;5026113;28;20045;-79
2024/02/28 08:13:59;;;;;;;35.53;20.88;;;;;;;;;;5052682;28;20033;-79
2024/02/28 08:16:25;;;;;;;37.67;21.23;;;;;;;;;;5029175;28;20030;-79
2024/02/28 08:18:51;;;;;;;43.38;24.27;;;;;;;;;;5041726;28;20025;-79
2024/02/28 08:21:18;;;;;;;39.00;23.15;;;;;;;;;;5025875;28;20042;-80
2024/02/28 08:23:44;;;;;;;36.03;19.65;;;;;;;;;;5044134;28;20041;-78
2024/02/28 08:26:11;;;;;;;32.00;18.73;;;;;;;;;;5027380;28;20424;-80
2024/02/28 08:28:37;;;;;;;32.75;19.33;;;;;;;;;;5028126;28;20390;-78
2024/02/28 08:31:03;;;;;;;48.97;27.05;;;;;;;;;;5046073;28;20033;-79
2024/02/28 08:33:29;;;;;;;44.72;24.73;;;;;;;;;;5027230;28;20094;-78
2024/02/28 08:35:57;;;;;;;40.65;23.13;;;;;;;;;;5029246;28;20109;-78
2024/02/28 08:38:23;;;;;;;41.78;23.45;;;;;;;;;;5026527;28;20026;-80
2024/02/28 08:40:49;;;;;;;35.42;21.08;;;;;;;;;;5020168;28;20030;-78
2024/02/28 08:43:15;;;;;;;35.67;20.45;;;;;;;;;;5030694;28;20512;-79
2024/02/28 08:45:41;;;;;;;32.05;18.10;;;;;;;;;;5020788;28;20451;-79
2024/02/28 08:48:07;;;;;;;33.85;19.80;;;;;;;;;;5020097;28;20030;-79
2024/02/28 08:50:34;;;;;;;33.85;19.23;;;;;;;;;;5045675;28;20045;-78
2024/02/28 08:53:00;;;;;;;40.08;20.73;;;;;;;;;;5019854;28;20022;-80
2024/02/28 08:55:26;;;;;;;32.60;18.67;;;;;;;;;;5033169;28;20117;-77
2024/02/28 08:57:52;;;;;;;34.22;18.48;;;;;;;;;;5020846;28;20025;-78
2024/02/28 09:00:18;;;;;;;29.10;16.88;;;;;;;;;;5024786;28;20057;-79
2024/02/28 09:02:44;;;;;;;30.23;16.52;;;;;;;;;;5033200;28;20033;-79
2024/02/28 09:05:10;;;;;;;32.30;17.95;;;;;;;;;;5027142;28;20087;-79
2024/02/28 09:07:37;;;;;;;33.83;18.98;;;;;;;;;;5022913;28;20105;-79
2024/02/28 09:10:06;;;;;;;36.90;19.63;;;;;;;;;;5021758;28;20034;-78
2024/02/28 09:12:32;;;;;;;36.40;20.60;;;;;;;;;;5029440;28;20033;-79
2024/02/28 09:14:59;;;;;;;37.28;19.73;;;;;;;;;;5022416;28;20030;-78
2024/02/28 09:17:25;;;;;;;33.25;18.65;;;;;;;;;;5019869;28;20105;-78
2024/02/28 09:19:53;;;;;;;41.28;23.13;;;;;;;;;;5018068;28;20452;-78
2024/02/28 09:22:21;;;;;;;38.28;21.63;;;;;;;;;;5019627;28;20075;-79
2024/02/28 09:24:48;;;;;;;42.53;24.08;;;;;;;;;;5045007;28;20026;-80
2024/02/28 09:27:14;;;;;;;41.42;22.60;;;;;;;;;;5026738;28;20052;-79
2024/02/28 09:29:40;;;;;;;41.20;22.90;;;;;;;;;;5030547;28;20026;-79
2024/02/28 09:32:07;;;;;;;42.40;23.67;;;;;;;;;;5021968;28;20033;-80
2024/02/28 09:34:33;;;;;;;48.55;23.95;;;;;;;;;;5019327;28;20025;-78
2024/02/28 09:37:01;;;;;;;37.50;22.08;;;;;;;;;;5030105;28;20033;-79
2024/02/28 09:39:27;;;;;;;38.60;22.35;;;;;;;;;;5021723;28;20033;-78
2024/02/28 09:41:53;;;;;;;45.17;25.33;;;;;;;;;;5025683;28;20025;-79
2024/02/28 09:44:20;;;;;;;44.55;24.40;;;;;;;;;;5028540;28;20030;-80
2024/02/28 09:46:48;;;;;;;34.28;21.13;;;;;;;;;;5028810;28;20393;-78
2024/02/28 09:49:16;;;;;;;38.90;20.25;;;;;;;;;;5026965;28;20018;-80
2024/02/28 09:51:42;;;;;;;27.77;15.93;;;;;;;;;;5034340;28;20097;-79
2024/02/28 09:54:08;;;;;;;28.27;16.20;;;;;;;;;;5034724;28;20026;-78
2024/02/28 09:56:35;;;;;;;21.48;14.30;;;;;;;;;;5031114;28;20029;-80
2024/02/28 09:59:04;;;;;;;29.10;17.63;;;;;;;;;;5028445;28;20021;-79
2024/02/28 10:01:31;;;;;;;25.27;15.85;;;;;;;;;;5044370;28;20026;-78
2024/02/28 10:03:58;;;;;;;30.02;17.75;;;;;;;;;;5019763;28;20381;-78
2024/02/28 10:06:24;;;;;;;28.58;17.73;;;;;;;;;;5019217;28;20037;-79
2024/02/28 10:08:50;;;;;;;31.25;18.27;;;;;;;;;;5028733;28;20026;-81
2024/02/28 10:11:20;;;;;;;27.67;16.45;;;;;;;;;;5045185;28;20097;-79
2024/02/28 10:13:47;;;;;;;32.00;18.20;;;;;;;;;;5012721;28;20030;-78
2024/02/28 10:16:15;;;;;;;28.05;17.67;;;;;;;;;;5026040;28;20033;-79
2024/02/28 10:18:43;;;;;;;22.52;15.43;;;;;;;;;;5039292;28;20429;-79
2024/02/28 10:21:09;;;;;;;26.25;17.25;;;;;;;;;;5032394;28;20040;-79
2024/02/28 10:23:36;;;;;;;36.55;20.80;;;;;;;;;;5026640;28;20022;-78
2024/02/28 10:26:02;;;;;;;33.83;20.95;;;;;;;;;;5022869;28;20030;-78
2024/02/28 10:28:28;;;;;;;29.77;18.30;;;;;;;;;;5018200;28;20044;-79
2024/02/28 10:30:54;;;;;;;36.28;21.83;;;;;;;;;;5034734;28;20043;-79
2024/02/28 10:33:21;;;;;;;36.05;22.73;;;;;;;;;;5023443;28;20085;-79
2024/02/28 10:35:53;;;;;;;30.50;18.00;;;;;;;;;;5020391;28;20034;-78
2024/02/28 10:38:20;;;;;;;30.23;17.92;;;;;;;;;;5017964;28;20486;-78
2024/02/28 10:40:47;;;;;;;27.00;17.20;;;;;;;;;;5014916;28;20030;-79
2024/02/28 10:43:15;;;;;;;34.17;20.25;;;;;;;;;;5023522;28;20021;-79
2024/02/28 10:45:43;;;;;;;37.35;24.15;;;;;;;;;;5021252;28;20631;-79
2024/02/28 10:48:10;;;;;;;35.55;22.52;;;;;;;;;;5022136;28;20334;-80
2024/02/28 10:50:36;;;;;;;30.30;20.42;;;;;;;;;;5044033;28;20073;-78
2024/02/28 10:53:10;;;;;;;28.75;18.92;;;;;;;;;;5024909;28;20034;-79
2024/02/28 10:55:40;;;;;;;31.58;18.98;;;;;;;;;;5019997;28;20042;-78
2024/02/28 10:58:10;;;;;;;46.17;26.60;;;;;;;;;;5028363;28;20057;-78
2024/02/28 11:00:38;;;;;;;42.17;24.67;;;;;;;;;;5017053;28;20041;-77
2024/02/28 11:03:06;;;;;;;38.78;24.85;;;;;;;;;;5017672;28;20018;-77
2024/02/28 11:05:37;;;;;;;38.25;24.10;;;;;;;;;;5037694;28;20429;-79
2024/02/28 11:08:03;;;;;;;39.38;22.73;;;;;;;;;;5023373;28;20465;-79
2024/02/28 11:10:33;;;;;;;30.55;20.23;;;;;;;;;;5020925;28;20025;-79
2024/02/28 11:12:59;;;;;;;28.42;18.98;;;;;;;;;;5023264;28;20037;-78
2024/02/28 11:15:27;;;;;;;30.35;17.92;;;;;;;;;;5027951;28;20026;-79
2024/02/28 11:17:53;;;;;;;27.08;18.13;;;;;;;;;;5038894;28;20037;-78
2024/02/28 11:20:20;;;;;;;24.17;15.70;;;;;;;;;;5043663;28;20050;-78
2024/02/28 11:22:46;;;;;;;29.35;17.08;;;;;;;;;;5023642;28;20026;-77
2024/02/28 11:25:12;;;;;;;28.92;18.98;;;;;;;;;;5024632;28;20097;-79
2024/02/28 11:27:47;;;;;;;35.60;20.45;;;;;;;;;;5021147;28;20021;-78
2024/02/28 11:30:15;;;;;;;34.33;20.70;;;;;;;;;;5029357;28;20060;-77
2024/02/28 11:32:41;;;;;;;39.78;23.80;;;;;;;;;;5039642;28;20093;-78
2024/02/28 11:35:07;;;;;;;34.67;22.52;;;;;;;;;;5024064;28;20045;-79
2024/02/28 11:37:34;;;;;;;41.42;23.85;;;;;;;;;;5043812;28;20034;-79
2024/02/28 11:40:00;;;;;;;42.28;25.17;;;;;;;;;;5028596;28;20029;-79
2024/02/28 11:42:26;;;;;;;43.13;24.48;;;;;;;;;;5029482;28;20022;-80
2024/02/28 11:44:57;;;;;;;43.85;23.95;;;;;;;;;;5032013;28;20002;-79
2024/02/28 11:47:23;;;;;;;36.35;21.42;;;;;;;;;;5028667;28;20045;-79
2024/02/28 11:49:50;;;;;;;36.55;22.15;;;;;;;;;;5031982;28;20026;-78
2024/02/28 11:52:16;;;;;;;34.42;20.85;;;;;;;;;;5029384;28;20519;-79
2024/02/28 11:54:42;;;;;;;30.30;19.40;;;;;;;;;;5031433;28;20026;-78
2024/02/28 11:57:08;;;;;;;28.33;18.10;;;;;;;;;;5040864;28;20035;-78
2024/02/28 11:59:34;;;;;;;30.77;18.98;;;;;;;;;;5031861;28;20029;-80
2024/02/28 12:02:00;;;;;;;44.72;26.85;;;;;;;;;;5047520;28;20056;-79
2024/02/28 12:04:26;;;;;;;37.45;23.17;;;;;;;;;;5026332;28;20045;-79
2024/02/28 12:06:52;;;;;;;36.17;21.48;;;;;;;;;;5045841;28;20044;-77
2024/02/28 12:09:31;;;;;;;34.08;20.52;;;;;;;;;;5043146;28;20464;-81
2024/02/28 12:12:01;;;;;;;35.17;21.33;;;;;;;;;;5033318;28;20032;-81
2024/02/28 12:14:27;;;;;;;35.35;20.98;;;;;;;;;;5024209;28;20044;-79
2024/02/28 12:16:53;;;;;;;37.95;21.75;;;;;;;;;;5022925;28;20032;-79
2024/02/28 12:19:20;;;;;;;41.63;24.55;;;;;;;;;;5041678;28;20106;-79
2024/02/28 12:21:47;;;;;;;44.45;25.80;;;;;;;;;;5008278;28;20018;-79
2024/02/28 12:24:14;;;;;;;42.97;25.13;;;;;;;;;;5021288;28;20025;-78
2024/02/28 12:26:40;;;;;;;41.70;23.83;;;;;;;;;;5022506;28;20049;-79
2024/02/28 12:29:06;;;;;;;35.50;21.98;;;;;;;;;;5048067;28;20030;-78
2024/02/28 12:31:32;;;;;;;35.92;20.98;;;;;;;;;;5028887;28;20077;-79
2024/02/28 12:33:59;;;;;;;36.42;22.20;;;;;;;;;;5030100;28;20098;-79
2024/02/28 12:36:26;;;;;;;40.13;23.35;;;;;;;;;;5028790;28;20025;-78
2024/02/28 12:38:52;;;;;;;33.20;21.77;;;;;;;;;;5016492;28;20017;-79
2024/02/28 12:41:18;;;;;;;28.58;18.52;;;;;;;;;;5024825;28;20061;-79
2024/02/28 12:43:44;;;;;;;30.42;19.70;;;;;;;;;;5021439;28;20018;-79
2024/02/28 12:46:10;;;;;;;33.83;21.58;;;;;;;;;;5018670;28;20040;-79
2024/02/28 12:48:44;;;;;;;31.33;18.27;;;;;;;;;;5017363;28;20037;-79
2024/02/28 12:51:14;;;;;;;26.23;16.77;;;;;;;;;;5028788;28;20032;-79
2024/02/28 12:53:40;;;;;;;23.88;15.20;;;;;;;;;;5023548;28;20047;-78
2024/02/28 12:56:06;;;;;;;28.15;17.63;;;;;;;;;;5025606;28;20025;-80
2024/02/28 12:58:32;;;;;;;26.25;17.17;;;;;;;;;;5023760;28;20089;-83
2024/02/28 13:00:58;;;;;;;27.35;16.75;;;;;;;;;;5029051;28;20029;-83
2024/02/28 13:03:24;;;;;;;26.05;16.83;;;;;;;;;;5040705;28;20021;-83
2024/02/28 13:05:51;;;;;;;25.17;15.75;;;;;;;;;;5045483;28;20021;-84
2024/02/28 13:08:17;;;;;;;32.08;19.70;;;;;;;;;;5040648;28;20029;-83
2024/02/28 13:10:43;;;;;;;27.48;17.75;;;;;;;;;;5029209;28;20038;-80
2024/02/28 13:13:09;;;;;;;33.53;19.05;;;;;;;;;;5024765;28;20006;-80
2024/02/28 13:15:35;;;;;;;51.42;25.08;;;;;;;;;;5024865;28;20120;-80
2024/02/28 13:18:07;;;;;;;44.65;25.83;;;;;;;;;;5026882;28;20098;-80
2024/02/28 13:20:33;;;;;;;43.93;24.93;;;;;;;;;;5026928;28;20014;-82
2024/02/28 13:22:59;;;;;;;34.22;21.17;;;;;;;;;;5042097;28;20049;-80
2024/02/28 13:25:26;;;;;;;30.75;19.23;;;;;;;;;;5027750;28;20045;-82
2024/02/28 13:27:52;;;;;;;34.58;21.50;;;;;;;;;;5024489;28;20022;-82
2024/02/28 13:30:18;;;;;;;31.92;19.98;;;;;;;;;;5030050;28;20044;-81
2024/02/28 13:32:44;;;;;;;36.17;21.92;;;;;;;;;;5028848;28;20061;-81
2024/02/28 13:35:11;;;;;;;35.25;21.52;;;;;;;;;;5030102;28;20021;-79
2024/02/28 13:37:40;;;;;;;39.58;22.95;;;;;;;;;;5026639;28;20026;-81
2024/02/28 13:40:07;;;;;;;35.88;21.58;;;;;;;;;;5041187;28;20022;-82
2024/02/28 13:42:33;;;;;;;29.85;19.15;;;;;;;;;;5015965;28;20089;-81
2024/02/28 13:44:59;;;;;;;34.22;19.23;;;;;;;;;;5021154;28;20037;-80
2024/02/28 13:47:25;;;;;;;27.45;17.70;;;;;;;;;;5031405;28;20046;-79
2024/02/28 13:49:51;;;;;;;34.75;21.10;;;;;;;;;;5041502;28;20030;-80
2024/02/28 13:52:17;;;;;;;35.72;22.38;;;;;;;;;;5027315;28;20022;-80
2024/02/28 13:54:45;;;;;;;31.13;20.65;;;;;;;;;;5026496;28;20045;-80
2024/02/28 13:57:11;;;;;;;30.77;19.85;;;;;;;;;;5039022;28;20034;-81
2024/02/28 13:59:37;;;;;;;36.88;22.35;;;;;;;;;;5024105;28;20030;-81
2024/02/28 14:02:03;;;;;;;33.95;20.85;;;;;;;;;;5038215;28;20014;-81
2024/02/28 14:04:29;;;;;;;35.47;21.13;;;;;;;;;;5030305;28;20040;-79
2024/02/28 14:06:56;;;;;;;34.20;20.67;;;;;;;;;;5035396;28;20095;-80
2024/02/28 14:09:22;;;;;;;33.28;19.48;;;;;;;;;;5026023;28;20044;-80
2024/02/28 14:11:48;;;;;;;33.55;20.00;;;;;;;;;;5021125;28;20025;-80
2024/02/28 14:14:15;;;;;;;31.70;20.00;;;;;;;;;;5026625;28;20022;-83